Impacts METAR Board INFO
IDs:

KIAH - Houston/Bush Intl, TX, US

Updated at: 1939 UTC 18 Feb 2018
Potential Impact None Slight Moderate High
Time18/07Z 18/08Z 18/09Z 18/10Z 18/11Z 18/12Z 18/13Z 18/14Z 18/15Z 18/16Z 18/17Z 18/18Z 18/19Z
VIS10 10 10 10 10 10 10 8 5 5 7 7 7
CIG11 11 9 9 7 7 6 6 5 6 7 9 15
CoverOVCOVCOVCOVCOVCOVCOVCOVCOVCOVCOVCBKNBKN
FltCatMVFRMVFRIFRIFRIFRIFRIFRIFRIFRIFRIFRIFRMVFR
WX----------------BRBR------
WDir503030606010050130100120140170160
WSpd7 6 6 5 6 6 6 6 7 7 9 9 11
WGst-- -- -- -- -- -- -- -- -- -- -- -- --
Raw hourly METARs
KIAH 180653Z 05007KT 10SM OVC011 16/13 A3013 RMK AO2 SLP202 T01560128
KIAH 180753Z 03006KT 10SM OVC011 16/13 A3013 RMK AO2 SLP201 T01560128
KIAH 180853Z 03006KT 10SM OVC009 16/13 A3012 RMK AO2 SLP198 T01560133 58007
KIAH 180953Z 06005KT 10SM OVC009 15/13 A3012 RMK AO2 SLP198 T01500133
KIAH 181053Z 06006KT 10SM OVC007 15/14 A3012 RMK AO2 SLP198 T01500139
KIAH 181153Z 10006KT 10SM OVC007 15/14 A3012 RMK AO2 SLP199 T01500139 10156 20150 51001
KIAH 181253Z 05006KT 10SM BKN006 OVC028 15/14 A3012 RMK AO2 SLP198 T01500139
KIAH 181353Z 13006KT 8SM BKN006 OVC014 16/14 A3013 RMK AO2 SLP201 T01560144
KIAH 181453Z 10007KT 5SM BR OVC005 17/16 A3014 RMK AO2 SLP207 T01670156 53008
KIAH 181553Z 12007KT 5SM BR OVC006 18/17 A3015 RMK AO2 SLP209 T01780167
KIAH 181653Z 14009KT 7SM OVC007 20/18 A3015 RMK AO2 SLP210 T02000178
KIAH 181753Z 17009KT 7SM BKN009 BKN250 22/18 A3013 RMK AO2 SLP203 T02170183 10217 20150 58003
KIAH 181853Z 16011KT 7SM BKN015 BKN250 23/19 A3010 RMK AO2 SLP192 T02330189